sensor_id;sensor_type;location;lat;lon;timestamp;P1;durP1;ratioP1;P2;durP2;ratioP2
62037;SDS011;47991;42.974;12.082;2022-12-10T00:00:04;23.80;;;3.40;;
62037;SDS011;47991;42.974;12.082;2022-12-10T00:02:31;21.20;;;3.90;;
62037;SDS011;47991;42.974;12.082;2022-12-10T00:04:58;19.80;;;3.10;;
62037;SDS011;47991;42.974;12.082;2022-12-10T00:07:25;10.60;;;2.50;;
62037;SDS011;47991;42.974;12.082;2022-12-10T00:09:52;21.20;;;3.80;;
62037;SDS011;47991;42.974;12.082;2022-12-10T00:12:19;20.00;;;3.60;;
62037;SDS011;47991;42.974;12.082;2022-12-10T00:14:47;18.50;;;3.90;;
62037;SDS011;47991;42.974;12.082;2022-12-10T00:17:14;20.50;;;3.20;;
62037;SDS011;47991;42.974;12.082;2022-12-10T00:19:40;15.80;;;2.60;;
62037;SDS011;47991;42.974;12.082;2022-12-10T00:22:07;19.00;;;3.60;;
62037;SDS011;47991;42.974;12.082;2022-12-10T00:24:34;19.00;;;3.80;;
62037;SDS011;47991;42.974;12.082;2022-12-10T00:27:01;15.10;;;3.40;;
62037;SDS011;47991;42.974;12.082;2022-12-10T00:29:28;19.50;;;3.40;;
62037;SDS011;47991;42.974;12.082;2022-12-10T00:31:55;18.70;;;3.20;;
62037;SDS011;47991;42.974;12.082;2022-12-10T00:34:22;18.90;;;3.60;;
62037;SDS011;47991;42.974;12.082;2022-12-10T00:36:49;15.20;;;2.90;;
62037;SDS011;47991;42.974;12.082;2022-12-10T00:39:17;18.00;;;2.80;;
62037;SDS011;47991;42.974;12.082;2022-12-10T00:41:45;20.70;;;3.30;;
62037;SDS011;47991;42.974;12.082;2022-12-10T00:44:12;20.90;;;3.20;;
62037;SDS011;47991;42.974;12.082;2022-12-10T00:46:40;18.90;;;3.40;;
62037;SDS011;47991;42.974;12.082;2022-12-10T00:49:08;16.20;;;3.10;;
62037;SDS011;47991;42.974;12.082;2022-12-10T00:51:36;18.60;;;3.50;;
62037;SDS011;47991;42.974;12.082;2022-12-10T00:54:03;15.30;;;3.10;;
62037;SDS011;47991;42.974;12.082;2022-12-10T00:56:31;15.00;;;2.80;;
62037;SDS011;47991;42.974;12.082;2022-12-10T00:58:58;21.10;;;3.40;;
62037;SDS011;47991;42.974;12.082;2022-12-10T01:02:00;15.60;;;3.60;;
62037;SDS011;47991;42.974;12.082;2022-12-10T01:04:20;16.70;;;3.20;;
62037;SDS011;47991;42.974;12.082;2022-12-10T01:06:49;16.80;;;3.30;;
62037;SDS011;47991;42.974;12.082;2022-12-10T01:09:21;19.20;;;3.90;;
62037;SDS011;47991;42.974;12.082;2022-12-10T01:11:52;22.00;;;3.50;;
62037;SDS011;47991;42.974;12.082;2022-12-10T01:14:22;20.90;;;3.70;;
62037;SDS011;47991;42.974;12.082;2022-12-10T01:16:54;18.30;;;3.20;;
62037;SDS011;47991;42.974;12.082;2022-12-10T01:19:22;22.70;;;3.50;;
62037;SDS011;47991;42.974;12.082;2022-12-10T01:21:53;16.80;;;2.80;;
62037;SDS011;47991;42.974;12.082;2022-12-10T01:24:21;21.10;;;3.50;;
62037;SDS011;47991;42.974;12.082;2022-12-10T01:26:49;19.30;;;3.50;;
62037;SDS011;47991;42.974;12.082;2022-12-10T01:29:17;19.50;;;3.80;;
62037;SDS011;47991;42.974;12.082;2022-12-10T01:31:44;29.90;;;5.20;;
62037;SDS011;47991;42.974;12.082;2022-12-10T01:34:13;22.90;;;3.90;;
62037;SDS011;47991;42.974;12.082;2022-12-10T01:36:41;26.10;;;4.60;;
62037;SDS011;47991;42.974;12.082;2022-12-10T01:39:12;18.50;;;3.10;;
62037;SDS011;47991;42.974;12.082;2022-12-10T01:41:43;25.30;;;5.70;;
62037;SDS011;47991;42.974;12.082;2022-12-10T01:46:40;32.20;;;4.90;;
62037;SDS011;47991;42.974;12.082;2022-12-10T01:49:12;26.30;;;4.60;;
62037;SDS011;47991;42.974;12.082;2022-12-10T01:51:42;19.20;;;3.90;;
62037;SDS011;47991;42.974;12.082;2022-12-10T01:54:12;22.20;;;4.50;;
62037;SDS011;47991;42.974;12.082;2022-12-10T01:56:43;22.40;;;3.90;;
62037;SDS011;47991;42.974;12.082;2022-12-10T01:59:13;34.20;;;5.70;;
62037;SDS011;47991;42.974;12.082;2022-12-10T02:01:46;28.80;;;4.60;;
62037;SDS011;47991;42.974;12.082;2022-12-10T02:04:49;27.10;;;5.40;;
62037;SDS011;47991;42.974;12.082;2022-12-10T02:10:14;22.60;;;4.50;;
62037;SDS011;47991;42.974;12.082;2022-12-10T02:12:47;27.60;;;3.80;;
62037;SDS011;47991;42.974;12.082;2022-12-10T02:15:29;23.90;;;4.70;;
62037;SDS011;47991;42.974;12.082;2022-12-10T02:18:19;26.20;;;4.70;;
62037;SDS011;47991;42.974;12.082;2022-12-10T02:20:55;26.60;;;4.60;;
62037;SDS011;47991;42.974;12.082;2022-12-10T02:26:32;42.30;;;5.50;;
62037;SDS011;47991;42.974;12.082;2022-12-10T02:29:17;33.80;;;5.60;;
62037;SDS011;47991;42.974;12.082;2022-12-10T02:31:51;31.00;;;5.10;;
62037;SDS011;47991;42.974;12.082;2022-12-10T02:34:21;29.80;;;5.50;;
62037;SDS011;47991;42.974;12.082;2022-12-10T02:36:51;26.70;;;5.40;;
62037;SDS011;47991;42.974;12.082;2022-12-10T02:39:22;30.40;;;4.40;;
62037;SDS011;47991;42.974;12.082;2022-12-10T02:41:56;33.50;;;5.10;;
62037;SDS011;47991;42.974;12.082;2022-12-10T02:44:27;31.20;;;5.20;;
62037;SDS011;47991;42.974;12.082;2022-12-10T02:46:56;30.90;;;4.90;;
62037;SDS011;47991;42.974;12.082;2022-12-10T02:49:28;27.90;;;5.10;;
62037;SDS011;47991;42.974;12.082;2022-12-10T02:51:59;28.50;;;5.00;;
62037;SDS011;47991;42.974;12.082;2022-12-10T02:54:37;25.20;;;4.20;;
62037;SDS011;47991;42.974;12.082;2022-12-10T02:57:09;33.90;;;5.10;;
62037;SDS011;47991;42.974;12.082;2022-12-10T03:00:07;33.60;;;4.50;;
62037;SDS011;47991;42.974;12.082;2022-12-10T03:05:37;27.50;;;5.20;;
62037;SDS011;47991;42.974;12.082;2022-12-10T03:13:29;33.30;;;5.40;;
62037;SDS011;47991;42.974;12.082;2022-12-10T03:16:03;31.30;;;4.90;;
62037;SDS011;47991;42.974;12.082;2022-12-10T03:18:31;26.70;;;4.70;;
62037;SDS011;47991;42.974;12.082;2022-12-10T03:21:02;28.10;;;4.50;;
62037;SDS011;47991;42.974;12.082;2022-12-10T03:23:33;27.70;;;4.60;;
62037;SDS011;47991;42.974;12.082;2022-12-10T03:26:05;25.60;;;4.80;;
62037;SDS011;47991;42.974;12.082;2022-12-10T03:28:34;19.70;;;3.50;;
62037;SDS011;47991;42.974;12.082;2022-12-10T03:31:13;14.50;;;2.80;;
62037;SDS011;47991;42.974;12.082;2022-12-10T03:33:41;15.90;;;2.80;;
62037;SDS011;47991;42.974;12.082;2022-12-10T03:36:09;14.00;;;2.50;;
62037;SDS011;47991;42.974;12.082;2022-12-10T03:38:37;9.90;;;2.70;;
62037;SDS011;47991;42.974;12.082;2022-12-10T03:41:04;12.40;;;2.20;;
62037;SDS011;47991;42.974;12.082;2022-12-10T03:43:31;11.90;;;2.50;;
62037;SDS011;47991;42.974;12.082;2022-12-10T03:45:57;7.80;;;1.70;;
62037;SDS011;47991;42.974;12.082;2022-12-10T03:48:24;11.50;;;2.60;;
62037;SDS011;47991;42.974;12.082;2022-12-10T03:50:50;7.10;;;1.50;;
62037;SDS011;47991;42.974;12.082;2022-12-10T03:53:18;12.70;;;2.10;;
62037;SDS011;47991;42.974;12.082;2022-12-10T03:55:47;11.30;;;2.20;;
62037;SDS011;47991;42.974;12.082;2022-12-10T03:58:13;5.80;;;1.20;;
62037;SDS011;47991;42.974;12.082;2022-12-10T04:00:40;5.10;;;1.10;;
62037;SDS011;47991;42.974;12.082;2022-12-10T04:03:07;5.40;;;1.70;;
62037;SDS011;47991;42.974;12.082;2022-12-10T04:05:33;8.70;;;1.70;;
62037;SDS011;47991;42.974;12.082;2022-12-10T04:08:00;4.40;;;1.20;;
62037;SDS011;47991;42.974;12.082;2022-12-10T04:10:28;3.90;;;1.20;;
62037;SDS011;47991;42.974;12.082;2022-12-10T04:12:55;5.10;;;1.40;;
62037;SDS011;47991;42.974;12.082;2022-12-10T04:15:40;10.10;;;2.10;;
62037;SDS011;47991;42.974;12.082;2022-12-10T04:18:25;8.50;;;1.30;;
62037;SDS011;47991;42.974;12.082;2022-12-10T04:20:52;7.90;;;1.60;;
62037;SDS011;47991;42.974;12.082;2022-12-10T04:23:37;6.70;;;1.50;;
62037;SDS011;47991;42.974;12.082;2022-12-10T04:26:23;7.50;;;1.90;;
62037;SDS011;47991;42.974;12.082;2022-12-10T04:29:08;5.50;;;1.40;;
62037;SDS011;47991;42.974;12.082;2022-12-10T04:31:36;7.80;;;1.90;;
62037;SDS011;47991;42.974;12.082;2022-12-10T04:34:02;6.20;;;1.70;;
62037;SDS011;47991;42.974;12.082;2022-12-10T04:36:32;4.20;;;1.40;;
62037;SDS011;47991;42.974;12.082;2022-12-10T04:38:59;6.60;;;1.60;;
62037;SDS011;47991;42.974;12.082;2022-12-10T04:41:26;3.70;;;1.00;;
62037;SDS011;47991;42.974;12.082;2022-12-10T04:43:52;5.20;;;1.20;;
62037;SDS011;47991;42.974;12.082;2022-12-10T04:46:19;6.50;;;1.40;;
62037;SDS011;47991;42.974;12.082;2022-12-10T04:48:46;5.90;;;2.00;;
62037;SDS011;47991;42.974;12.082;2022-12-10T04:51:13;4.50;;;1.20;;
62037;SDS011;47991;42.974;12.082;2022-12-10T04:53:40;6.50;;;1.20;;
62037;SDS011;47991;42.974;12.082;2022-12-10T04:56:08;4.30;;;1.00;;
62037;SDS011;47991;42.974;12.082;2022-12-10T04:58:35;3.80;;;1.10;;
62037;SDS011;47991;42.974;12.082;2022-12-10T05:01:02;6.00;;;1.50;;
62037;SDS011;47991;42.974;12.082;2022-12-10T05:03:30;6.50;;;1.50;;
62037;SDS011;47991;42.974;12.082;2022-12-10T05:06:06;6.60;;;1.50;;
62037;SDS011;47991;42.974;12.082;2022-12-10T05:08:36;5.30;;;1.30;;
62037;SDS011;47991;42.974;12.082;2022-12-10T05:11:08;4.60;;;1.20;;
62037;SDS011;47991;42.974;12.082;2022-12-10T05:13:37;4.10;;;1.30;;
62037;SDS011;47991;42.974;12.082;2022-12-10T05:16:06;6.00;;;1.30;;
62037;SDS011;47991;42.974;12.082;2022-12-10T05:18:33;8.30;;;2.00;;
62037;SDS011;47991;42.974;12.082;2022-12-10T05:21:02;7.60;;;1.90;;
62037;SDS011;47991;42.974;12.082;2022-12-10T05:23:30;5.90;;;1.70;;
62037;SDS011;47991;42.974;12.082;2022-12-10T05:26:08;6.00;;;1.40;;
62037;SDS011;47991;42.974;12.082;2022-12-10T05:28:35;4.00;;;1.30;;
62037;SDS011;47991;42.974;12.082;2022-12-10T05:31:04;6.70;;;1.30;;
62037;SDS011;47991;42.974;12.082;2022-12-10T05:33:31;5.60;;;1.40;;
62037;SDS011;47991;42.974;12.082;2022-12-10T05:35:59;8.00;;;1.80;;
62037;SDS011;47991;42.974;12.082;2022-12-10T05:38:28;6.10;;;1.50;;
62037;SDS011;47991;42.974;12.082;2022-12-10T05:41:00;9.40;;;1.80;;
62037;SDS011;47991;42.974;12.082;2022-12-10T05:43:28;7.00;;;1.70;;
62037;SDS011;47991;42.974;12.082;2022-12-10T05:46:03;5.00;;;1.50;;
62037;SDS011;47991;42.974;12.082;2022-12-10T05:48:32;5.90;;;1.40;;
62037;SDS011;47991;42.974;12.082;2022-12-10T05:51:07;7.60;;;2.70;;
62037;SDS011;47991;42.974;12.082;2022-12-10T05:53:36;5.20;;;1.20;;
62037;SDS011;47991;42.974;12.082;2022-12-10T05:56:04;5.50;;;1.20;;
62037;SDS011;47991;42.974;12.082;2022-12-10T05:58:36;4.50;;;1.30;;
62037;SDS011;47991;42.974;12.082;2022-12-10T06:01:07;9.30;;;1.30;;
62037;SDS011;47991;42.974;12.082;2022-12-10T06:03:54;9.20;;;1.40;;
62037;SDS011;47991;42.974;12.082;2022-12-10T06:06:23;7.30;;;1.50;;
62037;SDS011;47991;42.974;12.082;2022-12-10T06:08:51;7.70;;;1.40;;
62037;SDS011;47991;42.974;12.082;2022-12-10T06:11:21;8.20;;;1.50;;
62037;SDS011;47991;42.974;12.082;2022-12-10T06:13:48;8.20;;;1.60;;
62037;SDS011;47991;42.974;12.082;2022-12-10T06:16:15;12.00;;;2.30;;
62037;SDS011;47991;42.974;12.082;2022-12-10T06:18:42;5.70;;;1.50;;
62037;SDS011;47991;42.974;12.082;2022-12-10T06:21:12;8.90;;;1.80;;
62037;SDS011;47991;42.974;12.082;2022-12-10T06:23:41;10.50;;;2.10;;
62037;SDS011;47991;42.974;12.082;2022-12-10T06:26:10;11.40;;;2.00;;
62037;SDS011;47991;42.974;12.082;2022-12-10T06:28:45;15.40;;;2.30;;
62037;SDS011;47991;42.974;12.082;2022-12-10T06:31:13;10.10;;;2.40;;
62037;SDS011;47991;42.974;12.082;2022-12-10T06:33:42;9.30;;;1.70;;
62037;SDS011;47991;42.974;12.082;2022-12-10T06:36:10;8.00;;;1.40;;
62037;SDS011;47991;42.974;12.082;2022-12-10T06:38:38;12.30;;;2.40;;
62037;SDS011;47991;42.974;12.082;2022-12-10T06:41:06;8.70;;;1.40;;
62037;SDS011;47991;42.974;12.082;2022-12-10T06:43:34;14.80;;;2.50;;
62037;SDS011;47991;42.974;12.082;2022-12-10T06:46:08;12.50;;;1.80;;
62037;SDS011;47991;42.974;12.082;2022-12-10T06:48:37;7.00;;;1.60;;
62037;SDS011;47991;42.974;12.082;2022-12-10T06:51:05;12.20;;;2.30;;
62037;SDS011;47991;42.974;12.082;2022-12-10T06:53:33;11.10;;;1.60;;
62037;SDS011;47991;42.974;12.082;2022-12-10T06:56:01;9.50;;;1.70;;
62037;SDS011;47991;42.974;12.082;2022-12-10T06:58:30;9.50;;;1.60;;
62037;SDS011;47991;42.974;12.082;2022-12-10T07:01:02;7.40;;;1.50;;
62037;SDS011;47991;42.974;12.082;2022-12-10T07:03:34;8.90;;;1.50;;
62037;SDS011;47991;42.974;12.082;2022-12-10T07:06:01;11.60;;;2.30;;
62037;SDS011;47991;42.974;12.082;2022-12-10T07:08:28;8.50;;;1.60;;
62037;SDS011;47991;42.974;12.082;2022-12-10T07:10:56;9.00;;;2.10;;
62037;SDS011;47991;42.974;12.082;2022-12-10T07:13:24;9.50;;;1.80;;
62037;SDS011;47991;42.974;12.082;2022-12-10T07:15:52;7.30;;;1.70;;
62037;SDS011;47991;42.974;12.082;2022-12-10T07:18:18;12.70;;;2.10;;
62037;SDS011;47991;42.974;12.082;2022-12-10T07:20:47;8.90;;;1.70;;
62037;SDS011;47991;42.974;12.082;2022-12-10T07:23:14;9.40;;;1.80;;
62037;SDS011;47991;42.974;12.082;2022-12-10T07:25:41;6.80;;;1.50;;
62037;SDS011;47991;42.974;12.082;2022-12-10T07:28:08;8.70;;;1.90;;
62037;SDS011;47991;42.974;12.082;2022-12-10T07:30:36;8.20;;;1.50;;
62037;SDS011;47991;42.974;12.082;2022-12-10T07:33:03;9.60;;;1.60;;
62037;SDS011;47991;42.974;12.082;2022-12-10T07:35:30;7.60;;;1.40;;
62037;SDS011;47991;42.974;12.082;2022-12-10T07:37:56;6.90;;;1.30;;
62037;SDS011;47991;42.974;12.082;2022-12-10T07:40:24;12.50;;;1.60;;
62037;SDS011;47991;42.974;12.082;2022-12-10T07:42:51;11.10;;;1.70;;
62037;SDS011;47991;42.974;12.082;2022-12-10T07:45:17;6.60;;;1.50;;
62037;SDS011;47991;42.974;12.082;2022-12-10T07:47:44;10.80;;;1.80;;
62037;SDS011;47991;42.974;12.082;2022-12-10T07:50:11;9.30;;;1.50;;
62037;SDS011;47991;42.974;12.082;2022-12-10T07:52:38;7.20;;;2.00;;
62037;SDS011;47991;42.974;12.082;2022-12-10T07:55:05;12.70;;;1.60;;
62037;SDS011;47991;42.974;12.082;2022-12-10T07:57:32;10.40;;;1.50;;
62037;SDS011;47991;42.974;12.082;2022-12-10T08:00:00;9.20;;;1.60;;
62037;SDS011;47991;42.974;12.082;2022-12-10T08:02:26;5.80;;;1.20;;
62037;SDS011;47991;42.974;12.082;2022-12-10T08:04:54;8.10;;;1.60;;
62037;SDS011;47991;42.974;12.082;2022-12-10T08:07:20;11.10;;;2.00;;
62037;SDS011;47991;42.974;12.082;2022-12-10T08:09:47;9.10;;;1.60;;
62037;SDS011;47991;42.974;12.082;2022-12-10T08:12:14;7.90;;;1.60;;
62037;SDS011;47991;42.974;12.082;2022-12-10T08:14:41;9.60;;;2.10;;
62037;SDS011;47991;42.974;12.082;2022-12-10T08:17:09;10.00;;;1.80;;
62037;SDS011;47991;42.974;12.082;2022-12-10T08:19:36;5.50;;;1.90;;
62037;SDS011;47991;42.974;12.082;2022-12-10T08:22:03;8.60;;;1.50;;
62037;SDS011;47991;42.974;12.082;2022-12-10T08:24:30;13.90;;;2.20;;
62037;SDS011;47991;42.974;12.082;2022-12-10T08:26:57;7.10;;;1.70;;
62037;SDS011;47991;42.974;12.082;2022-12-10T08:29:24;9.20;;;1.50;;
62037;SDS011;47991;42.974;12.082;2022-12-10T08:31:51;9.60;;;1.80;;
62037;SDS011;47991;42.974;12.082;2022-12-10T08:34:17;12.50;;;1.90;;
62037;SDS011;47991;42.974;12.082;2022-12-10T08:36:45;13.60;;;1.50;;
62037;SDS011;47991;42.974;12.082;2022-12-10T08:39:15;8.30;;;1.20;;
62037;SDS011;47991;42.974;12.082;2022-12-10T08:41:45;10.20;;;1.90;;
62037;SDS011;47991;42.974;12.082;2022-12-10T08:44:12;9.20;;;1.60;;
62037;SDS011;47991;42.974;12.082;2022-12-10T08:46:40;7.40;;;1.50;;
62037;SDS011;47991;42.974;12.082;2022-12-10T08:49:07;9.00;;;1.70;;
62037;SDS011;47991;42.974;12.082;2022-12-10T08:51:34;11.70;;;2.70;;
62037;SDS011;47991;42.974;12.082;2022-12-10T08:54:01;8.70;;;1.70;;
62037;SDS011;47991;42.974;12.082;2022-12-10T08:56:29;6.60;;;1.80;;
62037;SDS011;47991;42.974;12.082;2022-12-10T08:58:56;8.00;;;2.90;;
62037;SDS011;47991;42.974;12.082;2022-12-10T09:01:22;18.80;;;6.30;;
62037;SDS011;47991;42.974;12.082;2022-12-10T09:03:49;12.70;;;4.70;;
62037;SDS011;47991;42.974;12.082;2022-12-10T09:06:20;8.50;;;2.20;;
62037;SDS011;47991;42.974;12.082;2022-12-10T09:08:51;7.00;;;1.90;;
62037;SDS011;47991;42.974;12.082;2022-12-10T09:11:23;8.30;;;1.70;;
62037;SDS011;47991;42.974;12.082;2022-12-10T09:13:55;7.50;;;1.50;;
62037;SDS011;47991;42.974;12.082;2022-12-10T09:16:29;8.00;;;1.40;;
62037;SDS011;47991;42.974;12.082;2022-12-10T09:18:58;7.30;;;1.30;;
62037;SDS011;47991;42.974;12.082;2022-12-10T09:21:26;6.20;;;1.60;;
62037;SDS011;47991;42.974;12.082;2022-12-10T09:23:53;7.00;;;1.30;;
62037;SDS011;47991;42.974;12.082;2022-12-10T09:26:21;10.50;;;2.70;;
62037;SDS011;47991;42.974;12.082;2022-12-10T09:28:48;9.90;;;2.40;;
62037;SDS011;47991;42.974;12.082;2022-12-10T09:31:17;7.10;;;1.60;;
62037;SDS011;47991;42.974;12.082;2022-12-10T09:33:47;7.00;;;1.70;;
62037;SDS011;47991;42.974;12.082;2022-12-10T09:36:16;9.10;;;1.20;;
62037;SDS011;47991;42.974;12.082;2022-12-10T09:38:44;4.70;;;1.20;;
62037;SDS011;47991;42.974;12.082;2022-12-10T09:51:46;9.10;;;1.70;;
62037;SDS011;47991;42.974;12.082;2022-12-10T09:54:22;8.90;;;1.80;;
62037;SDS011;47991;42.974;12.082;2022-12-10T09:56:53;6.10;;;1.70;;
62037;SDS011;47991;42.974;12.082;2022-12-10T09:59:23;6.40;;;1.50;;
62037;SDS011;47991;42.974;12.082;2022-12-10T10:04:44;5.70;;;1.50;;
62037;SDS011;47991;42.974;12.082;2022-12-10T10:07:24;6.60;;;1.50;;
62037;SDS011;47991;42.974;12.082;2022-12-10T10:09:56;10.30;;;2.90;;
62037;SDS011;47991;42.974;12.082;2022-12-10T10:12:27;7.70;;;2.00;;
62037;SDS011;47991;42.974;12.082;2022-12-10T10:14:56;4.50;;;1.40;;
62037;SDS011;47991;42.974;12.082;2022-12-10T10:17:33;7.10;;;1.50;;
62037;SDS011;47991;42.974;12.082;2022-12-10T10:20:04;11.40;;;1.60;;
62037;SDS011;47991;42.974;12.082;2022-12-10T10:22:31;7.20;;;1.70;;
62037;SDS011;47991;42.974;12.082;2022-12-10T10:24:58;6.60;;;1.40;;
62037;SDS011;47991;42.974;12.082;2022-12-10T10:27:29;8.80;;;1.60;;
62037;SDS011;47991;42.974;12.082;2022-12-10T10:29:58;3.20;;;1.00;;
62037;SDS011;47991;42.974;12.082;2022-12-10T10:35:04;10.50;;;1.60;;
62037;SDS011;47991;42.974;12.082;2022-12-10T10:40:02;5.10;;;1.30;;
62037;SDS011;47991;42.974;12.082;2022-12-10T10:42:36;5.50;;;1.30;;
62037;SDS011;47991;42.974;12.082;2022-12-10T10:48:21;4.80;;;1.10;;
62037;SDS011;47991;42.974;12.082;2022-12-10T10:50:54;6.70;;;1.80;;
62037;SDS011;47991;42.974;12.082;2022-12-10T10:53:33;4.70;;;1.20;;
62037;SDS011;47991;42.974;12.082;2022-12-10T10:58:54;2.60;;;1.10;;
62037;SDS011;47991;42.974;12.082;2022-12-10T11:01:46;2.40;;;0.90;;
62037;SDS011;47991;42.974;12.082;2022-12-10T11:04:17;6.50;;;1.10;;
62037;SDS011;47991;42.974;12.082;2022-12-10T11:06:49;6.90;;;1.10;;
62037;SDS011;47991;42.974;12.082;2022-12-10T11:09:22;4.00;;;1.10;;
62037;SDS011;47991;42.974;12.082;2022-12-10T11:11:58;4.20;;;1.30;;
62037;SDS011;47991;42.974;12.082;2022-12-10T11:14:30;12.40;;;1.70;;
62037;SDS011;47991;42.974;12.082;2022-12-10T11:19:58;7.90;;;2.80;;
62037;SDS011;47991;42.974;12.082;2022-12-10T11:24:56;5.70;;;1.20;;
62037;SDS011;47991;42.974;12.082;2022-12-10T11:30:13;5.10;;;1.50;;
62037;SDS011;47991;42.974;12.082;2022-12-10T11:38:09;3.50;;;1.20;;
62037;SDS011;47991;42.974;12.082;2022-12-10T11:41:02;5.30;;;1.50;;
62037;SDS011;47991;42.974;12.082;2022-12-10T11:44:13;10.00;;;1.80;;
62037;SDS011;47991;42.974;12.082;2022-12-10T11:46:56;4.00;;;1.60;;
62037;SDS011;47991;42.974;12.082;2022-12-10T11:52:06;5.50;;;1.70;;
62037;SDS011;47991;42.974;12.082;2022-12-10T12:00:48;4.60;;;1.90;;
62037;SDS011;47991;42.974;12.082;2022-12-10T12:07:07;6.90;;;2.20;;
62037;SDS011;47991;42.974;12.082;2022-12-10T12:15:39;6.00;;;2.10;;
62037;SDS011;47991;42.974;12.082;2022-12-10T12:18:36;4.00;;;1.60;;
62037;SDS011;47991;42.974;12.082;2022-12-10T12:21:11;7.20;;;2.20;;
62037;SDS011;47991;42.974;12.082;2022-12-10T12:23:52;6.60;;;2.50;;
62037;SDS011;47991;42.974;12.082;2022-12-10T12:26:30;8.30;;;3.40;;
62037;SDS011;47991;42.974;12.082;2022-12-10T12:31:57;6.50;;;2.80;;
62037;SDS011;47991;42.974;12.082;2022-12-10T12:34:34;6.40;;;2.60;;
62037;SDS011;47991;42.974;12.082;2022-12-10T12:37:14;7.90;;;2.60;;
62037;SDS011;47991;42.974;12.082;2022-12-10T12:39:57;7.50;;;2.30;;
62037;SDS011;47991;42.974;12.082;2022-12-10T12:42:52;6.50;;;2.80;;
62037;SDS011;47991;42.974;12.082;2022-12-10T12:45:38;8.20;;;2.50;;
62037;SDS011;47991;42.974;12.082;2022-12-10T12:53:43;7.40;;;2.60;;
62037;SDS011;47991;42.974;12.082;2022-12-10T13:10:54;4.20;;;1.60;;
62037;SDS011;47991;42.974;12.082;2022-12-10T13:37:35;3.40;;;0.90;;
62037;SDS011;47991;42.974;12.082;2022-12-10T13:40:22;1.50;;;0.70;;
62037;SDS011;47991;42.974;12.082;2022-12-10T13:43:28;1.90;;;0.60;;
62037;SDS011;47991;42.974;12.082;2022-12-10T13:46:32;3.70;;;1.00;;
62037;SDS011;47991;42.974;12.082;2022-12-10T13:49:02;13.90;;;8.50;;
62037;SDS011;47991;42.974;12.082;2022-12-10T13:54:26;5.60;;;1.50;;
62037;SDS011;47991;42.974;12.082;2022-12-10T13:59:43;2.20;;;1.00;;
62037;SDS011;47991;42.974;12.082;2022-12-10T14:02:36;2.00;;;1.20;;
62037;SDS011;47991;42.974;12.082;2022-12-10T14:07:47;4.10;;;1.20;;
62037;SDS011;47991;42.974;12.082;2022-12-10T14:10:16;2.10;;;0.90;;
62037;SDS011;47991;42.974;12.082;2022-12-10T14:12:49;3.00;;;1.20;;
62037;SDS011;47991;42.974;12.082;2022-12-10T14:15:18;2.30;;;1.00;;
62037;SDS011;47991;42.974;12.082;2022-12-10T14:17:54;4.90;;;1.30;;
62037;SDS011;47991;42.974;12.082;2022-12-10T14:22:57;2.00;;;1.00;;
62037;SDS011;47991;42.974;12.082;2022-12-10T14:25:48;2.00;;;1.20;;
62037;SDS011;47991;42.974;12.082;2022-12-10T14:28:18;2.70;;;1.40;;
62037;SDS011;47991;42.974;12.082;2022-12-10T14:30:46;8.90;;;2.90;;
62037;SDS011;47991;42.974;12.082;2022-12-10T14:33:17;5.90;;;2.10;;
62037;SDS011;47991;42.974;12.082;2022-12-10T14:35:48;7.40;;;2.00;;
62037;SDS011;47991;42.974;12.082;2022-12-10T14:40:47;6.10;;;2.10;;
62037;SDS011;47991;42.974;12.082;2022-12-10T14:43:21;5.10;;;1.70;;
62037;SDS011;47991;42.974;12.082;2022-12-10T14:46:00;4.90;;;1.80;;
62037;SDS011;47991;42.974;12.082;2022-12-10T14:48:30;4.20;;;1.50;;
62037;SDS011;47991;42.974;12.082;2022-12-10T14:51:08;3.40;;;1.30;;
62037;SDS011;47991;42.974;12.082;2022-12-10T14:53:40;3.00;;;1.60;;
62037;SDS011;47991;42.974;12.082;2022-12-10T14:56:07;5.30;;;2.00;;
62037;SDS011;47991;42.974;12.082;2022-12-10T14:58:48;5.40;;;1.90;;
62037;SDS011;47991;42.974;12.082;2022-12-10T15:01:41;5.80;;;2.30;;
62037;SDS011;47991;42.974;12.082;2022-12-10T15:04:12;7.70;;;3.00;;
62037;SDS011;47991;42.974;12.082;2022-12-10T15:06:42;7.20;;;2.60;;
62037;SDS011;47991;42.974;12.082;2022-12-10T15:09:13;5.70;;;1.90;;
62037;SDS011;47991;42.974;12.082;2022-12-10T15:11:52;5.10;;;2.10;;
62037;SDS011;47991;42.974;12.082;2022-12-10T15:14:24;8.30;;;2.90;;
62037;SDS011;47991;42.974;12.082;2022-12-10T15:24:48;1.50;;;1.00;;
62037;SDS011;47991;42.974;12.082;2022-12-10T15:29:42;2.50;;;1.20;;
62037;SDS011;47991;42.974;12.082;2022-12-10T15:32:19;1.30;;;0.90;;
62037;SDS011;47991;42.974;12.082;2022-12-10T15:35:04;0.70;;;0.70;;
62037;SDS011;47991;42.974;12.082;2022-12-10T15:37:39;0.70;;;0.50;;
62037;SDS011;47991;42.974;12.082;2022-12-10T15:42:50;1.00;;;0.80;;
62037;SDS011;47991;42.974;12.082;2022-12-10T15:45:22;0.60;;;0.60;;
62037;SDS011;47991;42.974;12.082;2022-12-10T15:47:57;1.80;;;0.70;;
62037;SDS011;47991;42.974;12.082;2022-12-10T15:50:25;3.80;;;0.90;;
62037;SDS011;47991;42.974;12.082;2022-12-10T15:52:52;0.90;;;0.70;;
62037;SDS011;47991;42.974;12.082;2022-12-10T15:55:19;2.90;;;0.90;;
62037;SDS011;47991;42.974;12.082;2022-12-10T15:57:46;3.00;;;1.10;;
62037;SDS011;47991;42.974;12.082;2022-12-10T16:00:16;1.30;;;0.90;;
62037;SDS011;47991;42.974;12.082;2022-12-10T16:02:46;3.50;;;0.80;;
62037;SDS011;47991;42.974;12.082;2022-12-10T16:05:20;1.20;;;0.80;;
62037;SDS011;47991;42.974;12.082;2022-12-10T16:07:56;3.60;;;1.00;;
62037;SDS011;47991;42.974;12.082;2022-12-10T16:10:26;1.60;;;0.90;;
62037;SDS011;47991;42.974;12.082;2022-12-10T16:15:36;8.70;;;1.10;;
62037;SDS011;47991;42.974;12.082;2022-12-10T16:18:10;4.00;;;1.20;;
62037;SDS011;47991;42.974;12.082;2022-12-10T16:20:37;3.30;;;1.30;;
62037;SDS011;47991;42.974;12.082;2022-12-10T16:23:04;4.40;;;1.30;;
62037;SDS011;47991;42.974;12.082;2022-12-10T16:25:32;2.60;;;1.30;;
62037;SDS011;47991;42.974;12.082;2022-12-10T16:28:00;2.00;;;1.40;;
62037;SDS011;47991;42.974;12.082;2022-12-10T16:33:07;3.80;;;1.50;;
62037;SDS011;47991;42.974;12.082;2022-12-10T16:35:34;4.10;;;1.40;;
62037;SDS011;47991;42.974;12.082;2022-12-10T16:38:01;4.60;;;1.50;;
62037;SDS011;47991;42.974;12.082;2022-12-10T16:40:28;3.10;;;1.30;;
62037;SDS011;47991;42.974;12.082;2022-12-10T16:42:55;2.10;;;1.30;;
62037;SDS011;47991;42.974;12.082;2022-12-10T16:45:30;3.90;;;1.20;;
62037;SDS011;47991;42.974;12.082;2022-12-10T16:48:02;5.40;;;1.80;;
62037;SDS011;47991;42.974;12.082;2022-12-10T16:50:30;3.10;;;1.20;;
62037;SDS011;47991;42.974;12.082;2022-12-10T16:53:01;3.90;;;1.40;;
62037;SDS011;47991;42.974;12.082;2022-12-10T16:55:33;3.10;;;1.50;;
62037;SDS011;47991;42.974;12.082;2022-12-10T16:58:00;3.90;;;1.60;;
62037;SDS011;47991;42.974;12.082;2022-12-10T17:00:27;4.10;;;1.40;;
62037;SDS011;47991;42.974;12.082;2022-12-10T17:02:54;2.10;;;1.40;;
62037;SDS011;47991;42.974;12.082;2022-12-10T17:05:29;2.10;;;1.70;;
62037;SDS011;47991;42.974;12.082;2022-12-10T17:08:00;2.20;;;1.30;;
62037;SDS011;47991;42.974;12.082;2022-12-10T17:10:27;3.40;;;1.30;;
62037;SDS011;47991;42.974;12.082;2022-12-10T17:13:13;3.00;;;1.40;;
62037;SDS011;47991;42.974;12.082;2022-12-10T17:15:42;3.60;;;2.00;;
62037;SDS011;47991;42.974;12.082;2022-12-10T17:18:13;4.20;;;1.80;;
62037;SDS011;47991;42.974;12.082;2022-12-10T17:20:42;3.40;;;1.60;;
62037;SDS011;47991;42.974;12.082;2022-12-10T17:23:14;2.10;;;1.50;;
62037;SDS011;47991;42.974;12.082;2022-12-10T17:25:41;4.40;;;1.50;;